KSBS

Details ICAO KSBS (SBS)
Name STEAMBOAT SPRINGS BOB ADAMS FLD
Region United States
Timezone America/Denver (UTC-6.0)
Plans Departing 19
Arriving 36
Stats Elevation 6,878 ft / 2,096 m (AMSL)
Location 40.516258° -106.866302°
Runways 1
Magnetic Variation 9.188° E
Sunrise 2018-05-26 11:43:42 UTC / 2018-05-26 05:43:42 Local
Sunset 2018-05-27 02:28:16 UTC / 2018-05-26 20:28:16 Local
Advertisement - Login to hide

Runways

ID Width Length Bearing (true) Bearing (mag) Surface Threshold Offset Overrun Length
14 100 ft / 30 m 4,454 ft / 1,358 m 152.97° 143.78° Asphalt 0 ft / 0 m 0 ft / 0 m
32 100 ft / 30 m 4,454 ft / 1,358 m 332.97° 323.78° Asphalt 600 ft / 183 m 0 ft / 0 m

Map

Weather


0- 5 10 15 20 25 30 35+ Temperature / ° C

Clouds and Precipitation
Forecast for 2018-05-26 18:00 UTC. Updated 5 hours ago

Ground ~20,000 ft ~40,000 ft Winds

METAR

KSBS 262155Z AUTO 27008KT 240V310 10SM CLR 26/M03 A2989 RMK AO1 T02631028

TAF

Not found

Frequencies

Recorded 118.32 MHz AWOS 3
Unicom 122.80 MHz CTAF/UNICOM
Warning: Do not use this data for real-world aviation or navigation. No guarantee of current accuracy is given.